Paw Paw, West Virginia
Current Conditions -  °F | °C
As of 9:19 PM on Saturday 22 Nov 2014 (Local Time) from KCBE Reporting Station
Clear Clear  
Wind Chill: 34°   Ceiling: Unl
Heat Index: 34°   Visibility: 10mi
Dew Point: 21°   Wind: 0mph
Humidity: 60%   Direction: NA
Pressure: 30.23"   Gusts: NA
Location:  39.53°N, 78.46°W
Report Text: KCBE 230219Z AUTO 00000KT 10SM CLR 01/M06 A3023 RMK AO1
Loading
Personal Weather Stations






























Interactive Weather Map New forecast layout! Learn more

10-Day Weather Forecast

Advertisements
Track Severe Weather on mobile